Time;durP1;ratioP1;P1;durP2;ratioP2;P2;SDS_P1;SDS_P2;PMS_P1;PMS_P2;Temp;Humidity;BMP_temperature;BMP_pressure;BME280_temperature;BME280_humidity;BME280_pressure;Samples;Min_cycle;Max_cycle;Signal;HPM_P1;HPM_P2
2021/10/21 00:02:40;;;;;;;12.43;8.50;;;;;;;14.24;60.57;99107.76;2195184;80;29179;-64
2021/10/21 00:05:48;;;;;;;12.15;8.63;;;;;;;14.23;60.68;99101.53;2196112;80;27783;-64
2021/10/21 00:08:54;;;;;;;13.08;8.53;;;;;;;14.23;60.62;99092.61;2178067;80;28686;-65
2021/10/21 00:11:56;;;;;;;10.55;8.60;;;;;;;14.23;60.62;99092.61;2224944;79;31847;-65
2021/10/21 00:15:02;;;;;;;11.65;8.08;;;;;;;14.23;60.63;99093.95;2185511;81;34106;-63
2021/10/21 00:18:08;;;;;;;11.63;8.25;;;;;;;14.23;60.67;99080.48;2189163;81;29811;-63
2021/10/21 00:21:14;;;;;;;13.72;8.65;;;;;;;14.22;60.66;99077.43;2201318;80;27577;-65
2021/10/21 00:24:17;;;;;;;10.98;8.43;;;;;;;14.22;60.63;99061.27;2177930;80;29862;-63
2021/10/21 00:27:23;;;;;;;13.38;9.08;;;;;;;14.20;60.69;99054.64;2171428;80;31042;-64
2021/10/21 00:30:30;;;;;;;13.68;8.50;;;;;;;14.21;60.73;99043.40;2191895;80;33735;-62
2021/10/21 00:33:33;;;;;;;11.73;9.25;;;;;;;14.21;60.70;99039.36;2126771;82;29087;-63
2021/10/21 00:36:40;;;;;;;9.85;7.92;;;;;;;14.20;60.69;99046.56;2130859;82;27753;-64
2021/10/21 00:39:47;;;;;;;9.55;7.97;;;;;;;14.21;60.73;99033.97;2146928;82;28648;-64
2021/10/21 00:42:53;;;;;;;13.85;8.20;;;;;;;14.20;60.77;99037.14;2141157;82;31860;-64
2021/10/21 00:45:59;;;;;;;13.93;8.90;;;;;;;14.21;60.72;99032.11;2153334;81;32968;-64
2021/10/21 00:49:05;;;;;;;13.75;9.73;;;;;;;14.21;60.70;99018.65;2148845;81;28995;-66
2021/10/21 00:52:10;;;;;;;12.73;8.88;;;;;;;14.23;60.66;99030.15;2148054;81;27690;-64
2021/10/21 00:55:15;;;;;;;9.85;8.48;;;;;;;14.25;60.63;99024.14;2185512;81;28632;-65
2021/10/21 00:58:19;;;;;;;14.73;8.17;;;;;;;14.27;60.62;99018.61;2143700;82;31038;-65
2021/10/21 01:01:22;;;;;;;10.30;8.65;;;;;;;14.29;60.54;99015.30;2134377;82;33184;-62
2021/10/21 01:04:24;;;;;;;16.20;8.80;;;;;;;14.29;60.52;99016.64;2124547;82;30175;-65
2021/10/21 01:07:26;;;;;;;15.90;8.08;;;;;;;14.28;60.52;99010.41;2153303;82;27723;-64
2021/10/21 01:10:33;;;;;;;15.10;9.18;;;;;;;14.29;60.51;99012.59;2183132;80;28671;-65
2021/10/21 01:13:39;;;;;;;11.08;7.97;;;;;;;14.31;60.49;99008.45;2150105;82;31023;-63
2021/10/21 01:16:45;;;;;;;14.18;9.03;;;;;;;14.31;60.47;99007.09;2106402;82;33023;-65
2021/10/21 01:19:54;;;;;;;11.43;8.43;;;;;;;14.32;60.47;99009.65;2156768;81;29934;-62
2021/10/21 01:23:00;;;;;;;12.78;8.35;;;;;;;14.32;60.47;99006.08;2154409;81;27676;-63
2021/10/21 01:26:15;;;;;;;12.58;8.53;;;;;;;14.30;60.48;99003.53;2166141;81;28701;-65
2021/10/21 01:29:22;;;;;;;12.88;8.50;;;;;;;14.30;60.48;99002.19;2134033;82;31875;-63
2021/10/21 01:32:27;;;;;;;10.75;8.05;;;;;;;14.32;60.57;98992.14;2159307;81;32968;-64
2021/10/21 01:35:34;;;;;;;11.33;8.23;;;;;;;14.35;60.60;98978.41;2169063;81;29053;-64
2021/10/21 01:38:37;;;;;;;11.50;8.10;;;;;;;14.39;60.57;98966.38;2156892;81;27700;-64
2021/10/21 01:41:43;;;;;;;9.70;8.28;;;;;;;14.43;60.52;98952.98;2154969;81;28651;-65
2021/10/21 01:44:48;;;;;;;12.85;8.78;;;;;;;14.49;60.49;98949.39;2148838;81;30995;-63
2021/10/21 01:47:54;;;;;;;13.53;8.53;;;;;;;14.54;60.44;98949.34;2184491;81;32952;-64
2021/10/21 01:51:00;;;;;;;12.85;8.58;;;;;;;14.60;60.36;98939.86;2147513;81;29021;-64
2021/10/21 01:54:06;;;;;;;12.98;8.73;;;;;;;14.67;60.12;98946.91;2173384;81;27799;-64
2021/10/21 01:57:10;;;;;;;12.15;8.63;;;;;;;14.74;60.19;98944.91;2173123;81;29457;-64
2021/10/21 02:00:16;;;;;;;12.33;8.80;;;;;;;14.80;60.07;98934.57;2170524;81;32061;-64
2021/10/21 02:03:23;;;;;;;12.73;8.68;;;;;;;14.85;60.03;98934.52;2152544;81;32938;-64
2021/10/21 02:06:29;;;;;;;11.22;8.63;;;;;;;14.89;59.92;98919.77;2143586;81;29021;-64
2021/10/21 02:09:34;;;;;;;16.52;7.85;;;;;;;14.94;59.75;98919.35;2174199;81;27648;-64
2021/10/21 02:12:39;;;;;;;;;;;;;;;14.99;59.71;98918.93;2162124;81;28649;-64
2021/10/21 02:15:41;;;;;;;13.15;7.87;;;;;;;15.03;59.67;98931.16;2139461;81;31012;-65
2021/10/21 02:18:45;;;;;;;11.83;8.25;;;;;;;15.03;59.63;98910.45;2184670;81;34049;-63
2021/10/21 02:21:51;;;;;;;11.28;8.10;;;;;;;15.03;59.59;98911.80;2155260;81;29026;-64
2021/10/21 02:24:57;;;;;;;12.45;8.75;;;;;;;15.03;59.52;98927.11;2149664;81;27734;-64
2021/10/21 02:27:59;;;;;;;11.05;7.80;;;;;;;15.02;59.54;98920.88;2175241;81;28630;-65
2021/10/21 02:31:01;;;;;;;13.22;7.72;;;;;;;15.01;59.52;98894.03;2147569;81;32202;-64
2021/10/21 02:34:07;;;;;;;15.18;8.73;;;;;;;15.00;59.54;98884.23;2171374;81;33019;-63
2021/10/21 02:37:13;;;;;;;12.23;8.55;;;;;;;15.01;59.48;98881.89;2138151;81;29112;-64
2021/10/21 02:40:17;;;;;;;10.88;8.63;;;;;;;15.02;59.43;98868.77;2158885;81;27649;-65
2021/10/21 02:43:22;;;;;;;9.28;8.00;;;;;;;15.05;59.39;98860.39;2154862;81;29293;-64
2021/10/21 02:46:29;;;;;;;11.20;8.33;;;;;;;15.07;59.29;98841.36;2169849;81;31830;-67
2021/10/21 02:49:35;;;;;;;14.53;8.70;;;;;;;15.09;59.37;98840.73;2160015;81;33039;-64
2021/10/21 02:52:40;;;;;;;13.13;9.15;;;;;;;15.10;59.25;98831.16;2168270;81;28976;-63
2021/10/21 02:55:46;;;;;;;12.98;8.15;;;;;;;15.13;59.12;98825.97;2156471;81;27679;-66
2021/10/21 02:58:52;;;;;;;11.20;8.70;;;;;;;15.15;59.16;98814.55;2139439;81;29519;-65
2021/10/21 03:01:58;;;;;;;16.07;8.48;;;;;;;15.17;59.10;98807.17;2157937;81;30978;-67
2021/10/21 03:05:05;;;;;;;14.70;8.58;;;;;;;15.19;59.04;98791.19;2155537;81;32969;-67
2021/10/21 03:08:06;;;;;;;15.53;8.98;;;;;;;15.21;59.05;98782.97;2183274;80;29004;-66
2021/10/21 03:11:08;;;;;;;11.33;8.20;;;;;;;15.23;59.04;98785.51;2225410;79;27695;-68
2021/10/21 03:14:10;;;;;;;14.38;8.53;;;;;;;15.26;58.96;98775.78;2185069;81;29329;-65
2021/10/21 03:17:16;;;;;;;15.75;8.50;;;;;;;15.28;58.97;98781.37;2180916;81;31018;-64
2021/10/21 03:20:22;;;;;;;13.60;8.88;;;;;;;15.32;58.82;98778.75;2176118;81;33019;-65
2021/10/21 03:23:28;;;;;;;10.20;7.75;;;;;;;15.36;58.86;98784.70;2162402;81;29065;-69
2021/10/21 03:26:33;;;;;;;11.38;7.80;;;;;;;15.40;58.75;98766.37;2176819;81;27727;-67
2021/10/21 03:29:39;;;;;;;12.25;8.75;;;;;;;15.41;58.71;98755.45;2147698;81;28626;-64
2021/10/21 03:32:44;;;;;;;17.82;8.13;;;;;;;15.45;58.61;98752.81;2167392;81;31004;-65
2021/10/21 03:35:49;;;;;;;;;;;;;;;15.47;58.59;98746.75;2179153;81;32983;-65
2021/10/21 03:38:55;;;;;;;10.60;7.60;;;;;;;15.50;58.53;98738.88;2169938;81;29010;-64
2021/10/21 03:42:00;;;;;;;12.00;8.78;;;;;;;15.51;58.59;98729.78;2177101;81;27697;-63
2021/10/21 03:45:07;;;;;;;10.95;8.15;;;;;;;15.52;58.48;98735.53;2168888;81;29434;-64
2021/10/21 03:48:10;;;;;;;15.03;8.53;;;;;;;15.55;58.51;98726.28;2100216;82;31061;-64
2021/10/21 03:51:15;;;;;;;12.90;8.53;;;;;;;15.56;58.46;98726.63;2109902;84;33623;-64
2021/10/21 03:54:20;;;;;;;;;;;;;;;15.59;58.40;98726.34;2119417;82;29020;-64
2021/10/21 03:57:26;;;;;;;14.05;8.43;;;;;;;15.60;58.38;98741.03;2089693;82;27605;-64
2021/10/21 04:00:33;;;;;;;12.90;8.50;;;;;;;15.62;58.43;98740.91;2095272;82;28701;-65
2021/10/21 04:03:36;;;;;;;12.15;8.98;;;;;;;15.63;58.44;98749.36;2070823;84;31111;-64
2021/10/21 04:06:38;;;;;;;10.25;8.73;;;;;;;15.64;58.28;98738.88;2106436;84;33561;-64
2021/10/21 04:09:40;;;;;;;16.15;9.05;;;;;;;15.65;58.42;98756.78;2116612;84;29406;-64
2021/10/21 04:12:46;;;;;;;15.10;8.35;;;;;;;15.67;58.50;98772.34;2097151;83;27717;-63
2021/10/21 04:15:52;;;;;;;13.48;9.03;;;;;;;15.69;58.36;98782.49;2108301;84;28715;-64
2021/10/21 04:18:57;;;;;;;15.90;9.18;;;;;;;15.64;58.46;98755.08;2098612;83;31008;-64
2021/10/21 04:22:02;;;;;;;18.02;10.15;;;;;;;15.68;58.85;98762.41;2073010;84;37197;-64
2021/10/21 04:25:05;;;;;;;15.28;11.53;;;;;;;15.64;60.72;98759.13;2114916;84;28506;-64
2021/10/21 04:28:11;;;;;;;14.65;10.53;;;;;;;15.50;61.16;98768.56;2102866;84;27650;-64
2021/10/21 04:31:17;;;;;;;16.95;11.40;;;;;;;15.38;61.12;98777.83;2106803;84;29463;-65
2021/10/21 04:34:23;;;;;;;17.10;11.78;;;;;;;15.27;61.61;98770.23;2099862;82;31865;-64
2021/10/21 04:37:29;;;;;;;16.93;11.57;;;;;;;15.18;62.00;98782.73;2127978;83;33788;-64
2021/10/21 04:40:35;;;;;;;17.82;11.03;;;;;;;15.07;62.53;98753.70;2112041;82;29820;-65
2021/10/21 04:43:40;;;;;;;15.90;11.90;;;;;;;14.94;63.14;98735.15;2112246;83;27511;-66
2021/10/21 04:46:46;;;;;;;20.23;12.28;;;;;;;14.80;63.22;98730.55;2136807;82;28693;-65
2021/10/21 04:49:48;;;;;;;16.37;12.75;;;;;;;14.69;63.94;98733.36;2104557;83;31820;-64
2021/10/21 04:52:54;;;;;;;18.45;13.30;;;;;;;14.57;64.14;98711.92;2126529;83;34230;-64
2021/10/21 04:56:01;;;;;;;15.80;12.45;;;;;;;14.48;64.56;98705.17;2142735;83;29818;-64
2021/10/21 04:59:08;;;;;;;16.67;12.75;;;;;;;14.42;64.80;98706.59;2142779;82;27718;-65
2021/10/21 05:02:11;;;;;;;20.85;13.62;;;;;;;14.35;65.04;98717.08;2120610;81;28676;-64
2021/10/21 05:05:15;;;;;;;20.40;13.68;;;;;;;14.29;65.10;98702.81;2128445;81;31195;-65
2021/10/21 05:08:20;;;;;;;19.37;13.68;;;;;;;14.25;65.30;98702.25;2101508;84;33805;-65
2021/10/21 05:11:25;;;;;;;17.82;13.85;;;;;;;14.22;65.68;98685.02;2101621;84;29020;-65
2021/10/21 05:14:31;;;;;;;18.80;14.05;;;;;;;14.17;65.69;98700.73;2157983;82;27671;-67
2021/10/21 05:17:37;;;;;;;17.82;13.90;;;;;;;14.15;66.05;98708.09;2144584;83;29483;-67
2021/10/21 05:20:43;;;;;;;27.58;17.32;;;;;;;14.13;66.17;98699.33;2144639;82;31032;-65
2021/10/21 05:23:49;;;;;;;20.85;14.98;;;;;;;14.12;66.45;98704.36;2121604;83;33972;-65
2021/10/21 05:26:55;;;;;;;23.20;15.85;;;;;;;14.10;66.43;98698.25;2120492;83;30074;-66
2021/10/21 05:29:59;;;;;;;18.73;14.13;;;;;;;14.08;66.84;98698.37;2141596;82;27696;-65
2021/10/21 05:33:05;;;;;;;22.67;14.97;;;;;;;14.05;66.51;98703.19;2131610;83;28628;-65
2021/10/21 05:36:11;;;;;;;20.27;14.58;;;;;;;14.05;66.82;98695.12;2124896;83;31094;-65
2021/10/21 05:39:15;;;;;;;18.67;14.60;;;;;;;14.04;67.13;98696.97;2141820;82;32957;-64
2021/10/21 05:42:17;;;;;;;21.12;15.50;;;;;;;14.03;66.91;98682.28;2156085;81;29872;-65
2021/10/21 05:45:23;;;;;;;19.92;15.40;;;;;;;14.01;67.08;98679.73;2176456;81;27702;-66
2021/10/21 05:48:28;;;;;;;21.37;15.40;;;;;;;13.97;67.16;98668.88;2144717;82;29656;-65
2021/10/21 05:52:24;;;;;;;21.12;14.75;;;;;;;13.97;67.26;98675.61;2138903;82;31022;-65
2021/10/21 05:54:56;;;;;;;25.08;18.10;;;;;;;13.96;67.54;98680.64;2099320;83;30562;-65
2021/10/21 05:57:58;;;;;;;24.35;16.95;;;;;;;13.93;67.52;98672.36;2125755;83;29435;-65
2021/10/21 06:01:00;;;;;;;25.57;16.87;;;;;;;13.89;67.48;98662.84;2143716;82;27614;-64
2021/10/21 06:04:05;;;;;;;20.52;15.63;;;;;;;13.87;67.71;98663.47;2122146;83;28686;-66
2021/10/21 06:07:11;;;;;;;18.25;14.55;;;;;;;13.86;67.75;98666.31;2080282;84;31049;-65
2021/10/21 06:10:14;;;;;;;17.23;14.45;;;;;;;13.83;67.66;98658.87;2101512;84;33842;-66
2021/10/21 06:13:20;;;;;;;23.32;14.90;;;;;;;13.82;67.77;98651.78;2143130;83;30178;-64
2021/10/21 06:16:22;;;;;;;18.73;14.65;;;;;;;13.83;67.81;98643.20;2121715;83;27647;-66
2021/10/21 06:19:28;;;;;;;19.77;15.32;;;;;;;13.81;67.86;98646.55;2117067;82;29336;-66
2021/10/21 06:22:29;;;;;;;24.32;15.75;;;;;;;13.81;67.84;98649.24;2132931;82;32154;-66
2021/10/21 06:25:35;;;;;;;19.40;15.32;;;;;;;13.82;67.96;98629.37;2160274;82;33143;-64
2021/10/21 06:28:41;;;;;;;18.67;14.07;;;;;;;13.82;67.75;98638.33;2144590;83;29066;-72
2021/10/21 06:31:51;;;;;;;24.72;15.13;;;;;;;13.83;67.88;98649.45;2103038;84;27784;-65
2021/10/21 06:34:56;;;;;;;18.65;15.35;;;;;;;13.82;67.89;98653.13;2151445;82;28685;-64
2021/10/21 06:38:00;;;;;;;21.20;15.80;;;;;;;13.83;67.85;98660.70;2153956;82;31195;-64
2021/10/21 06:41:06;;;;;;;19.55;15.93;;;;;;;13.82;67.71;98663.89;2152150;81;32958;-62
2021/10/21 06:44:12;;;;;;;23.95;16.67;;;;;;;13.81;67.84;98652.77;2119598;82;29146;-66
2021/10/21 06:47:17;;;;;;;22.60;16.95;;;;;;;13.79;68.27;98655.25;2164003;81;27757;-70
2021/10/21 06:50:20;;;;;;;20.37;16.23;;;;;;;13.77;67.99;98667.99;2182941;81;28740;-68
2021/10/21 06:53:26;;;;;;;25.90;16.60;;;;;;;13.73;68.03;98675.50;2151889;82;31115;-69
2021/10/21 06:56:28;;;;;;;22.67;16.93;;;;;;;13.71;68.06;98684.67;2152311;82;34640;-67
2021/10/21 06:59:34;;;;;;;22.13;17.75;;;;;;;13.69;68.18;98665.98;2179828;81;29073;-68
2021/10/21 07:02:37;;;;;;;18.98;16.30;;;;;;;13.68;68.20;98646.79;2185703;81;27536;-65
2021/10/21 07:05:43;;;;;;;26.45;18.37;;;;;;;13.67;68.17;98624.39;2140403;82;29474;-63
2021/10/21 07:08:48;;;;;;;21.42;17.27;;;;;;;13.68;68.13;98622.06;2141689;82;31067;-65
2021/10/21 07:11:54;;;;;;;22.93;16.77;;;;;;;13.67;68.15;98616.32;2141736;82;33025;-66
2021/10/21 07:15:00;;;;;;;25.17;17.98;;;;;;;13.70;68.23;98608.97;2141724;82;29053;-64
2021/10/21 07:18:05;;;;;;;22.22;17.80;;;;;;;13.72;68.34;98611.02;2141707;83;28142;-63
2021/10/21 07:21:09;;;;;;;24.43;18.67;;;;;;;13.75;68.35;98620.17;2134530;83;29574;-63
2021/10/21 07:24:15;;;;;;;22.22;18.25;;;;;;;13.78;68.37;98605.94;2139770;83;31007;-63
2021/10/21 07:27:21;;;;;;;22.32;18.42;;;;;;;13.79;68.49;98593.34;2106199;82;33762;-63
2021/10/21 07:30:30;;;;;;;23.20;18.07;;;;;;;13.79;68.40;98604.11;2155580;81;29946;-63
2021/10/21 07:33:31;;;;;;;25.43;18.20;;;;;;;13.78;68.37;98595.68;2146702;82;27660;-62
2021/10/21 07:36:37;;;;;;;27.75;19.02;;;;;;;13.78;68.47;98568.77;2101752;84;28710;-64
2021/10/21 07:39:43;;;;;;;20.15;17.50;;;;;;;13.78;68.49;98580.88;2102797;84;31860;-62
2021/10/21 07:42:49;;;;;;;20.43;17.27;;;;;;;13.76;68.39;98564.85;2107353;84;32943;-65
2021/10/21 07:45:53;;;;;;;20.88;16.52;;;;;;;13.76;68.43;98562.16;2108295;83;29890;-62
2021/10/21 07:48:55;;;;;;;19.52;16.40;;;;;;;13.77;68.42;98558.48;2140321;83;27771;-64
2021/10/21 07:52:02;;;;;;;23.50;17.17;;;;;;;13.80;68.35;98557.38;2140574;83;29891;-63
2021/10/21 07:55:09;;;;;;;21.40;17.05;;;;;;;13.82;68.44;98548.16;2138875;83;31043;-63
2021/10/21 07:58:16;;;;;;;19.80;16.93;;;;;;;13.84;68.39;98566.84;2129264;83;33762;-62
2021/10/21 08:01:22;;;;;;;21.70;17.87;;;;;;;13.87;68.34;98554.97;2129361;83;29679;-62
2021/10/21 08:04:34;;;;;;;21.20;16.93;;;;;;;13.90;68.33;98560.08;2107020;83;28303;-63
2021/10/21 08:07:48;;;;;;;21.87;17.50;;;;;;;13.93;68.28;98548.52;2129738;83;28665;-63
2021/10/21 08:10:54;;;;;;;23.95;16.52;;;;;;;13.98;68.29;98551.61;2128617;83;31033;-63
2021/10/21 08:13:56;;;;;;;23.10;17.30;;;;;;;14.04;68.25;98566.38;2133361;83;33800;-63
2021/10/21 08:17:03;;;;;;;22.40;15.83;;;;;;;14.09;68.24;98552.48;2136260;83;29012;-63
2021/10/21 08:20:07;;;;;;;19.73;15.45;;;;;;;14.13;68.25;98540.45;2139838;82;27627;-62
2021/10/21 08:23:12;;;;;;;19.73;15.55;;;;;;;14.19;68.16;98540.36;2102786;84;28715;-63
2021/10/21 08:26:20;;;;;;;19.05;14.13;;;;;;;14.28;68.12;98530.06;2135331;83;31703;-64
2021/10/21 08:29:25;;;;;;;26.10;15.38;;;;;;;14.36;68.19;98516.73;2131485;82;33060;-62
2021/10/21 08:32:30;;;;;;;18.20;14.23;;;;;;;14.42;68.03;98511.27;2082109;84;29024;-62
2021/10/21 08:35:36;;;;;;;18.30;14.37;;;;;;;14.50;68.00;98497.06;2176501;80;27725;-62
2021/10/21 08:38:39;;;;;;;23.62;14.13;;;;;;;14.57;67.99;98496.33;2183997;81;29548;-63
2021/10/21 08:41:47;;;;;;;18.17;14.85;;;;;;;14.65;67.79;98478.56;2179105;81;31050;-62
2021/10/21 08:44:52;;;;;;;21.97;14.40;;;;;;;14.70;67.75;98473.62;2188482;80;33040;-62
2021/10/21 08:47:58;;;;;;;15.85;13.90;;;;;;;14.72;67.73;98458.15;2189664;81;29022;-62
2021/10/21 08:51:05;;;;;;;18.95;14.35;;;;;;;14.73;67.76;98460.69;2186801;81;27672;-63
2021/10/21 08:54:10;;;;;;;13.53;12.03;;;;;;;14.79;67.74;98446.27;2189318;81;28692;-63
2021/10/21 08:57:15;;;;;;;15.75;12.45;;;;;;;14.86;67.70;98423.95;2205949;80;31000;-62
2021/10/21 09:00:17;;;;;;;16.87;11.97;;;;;;;14.95;67.71;98432.16;2188165;81;32946;-64
2021/10/21 09:04:02;;;;;;;18.57;12.43;;;;;;;14.98;67.44;98439.91;2175863;80;30211;-62
2021/10/21 09:10:16;;;;;;;14.45;10.43;;;;;;;15.13;67.24;98441.61;2194262;80;29055;-62
2021/10/21 09:13:26;;;;;;;15.05;10.08;;;;;;;15.25;67.21;98456.58;2198967;80;31033;-63
2021/10/21 09:16:32;;;;;;;13.58;10.45;;;;;;;15.38;67.01;98458.91;2180223;80;33973;-63
2021/10/21 09:19:38;;;;;;;14.25;11.35;;;;;;;15.50;66.76;98442.84;2199671;80;29066;-63
2021/10/21 09:22:46;;;;;;;15.80;10.28;;;;;;;15.62;66.54;98452.08;2204416;80;27761;-63
2021/10/21 09:25:49;;;;;;;12.23;9.45;;;;;;;15.73;66.37;98440.16;2182491;81;28655;-65
2021/10/21 09:28:54;;;;;;;12.93;9.65;;;;;;;15.85;66.13;98456.98;2145250;82;31372;-67
2021/10/21 09:32:21;;;;;;;;;;;;;;;15.97;65.68;98462.50;2145917;82;32916;-64
2021/10/21 09:35:26;;;;;;;11.08;8.93;;;;;;;16.18;65.24;98441.05;2161242;81;29640;-64
2021/10/21 09:38:35;;;;;;;10.78;6.95;;;;;;;16.18;65.24;98441.05;2170095;81;28315;-64
2021/10/21 09:41:38;;;;;;;8.28;6.78;;;;;;;16.28;64.55;98439.12;2187942;80;28613;-62
2021/10/21 09:44:43;;;;;;;11.05;6.70;;;;;;;16.40;64.45;98431.56;2133974;81;32342;-65
2021/10/21 09:47:52;;;;;;;11.45;6.55;;;;;;;16.53;63.87;98424.38;2091098;84;34032;-63
2021/10/21 09:50:55;;;;;;;8.73;5.72;;;;;;;16.68;63.81;98432.75;2112467;84;29106;-64
2021/10/21 09:54:04;;;;;;;13.83;6.75;;;;;;;16.85;63.42;98448.52;2199205;80;27828;-62
2021/10/21 09:57:12;;;;;;;8.00;6.17;;;;;;;16.99;62.95;98444.39;2199721;80;28666;-64
2021/10/21 10:00:16;;;;;;;;;;;;;;;17.09;62.61;98430.73;2163650;82;31922;-63
2021/10/21 10:03:26;;;;;;;9.35;6.12;;;;;;;17.11;62.02;98392.19;2143477;82;32952;-65
2021/10/21 10:06:32;;;;;;;8.30;5.75;;;;;;;17.11;62.02;98392.19;2159778;82;29060;-63
2021/10/21 10:09:38;;;;;;;11.48;6.15;;;;;;;17.29;62.21;98401.00;2169814;81;27726;-64
2021/10/21 10:12:44;;;;;;;8.73;5.22;;;;;;;17.38;62.14;98402.38;2162898;82;28646;-64
2021/10/21 10:15:51;;;;;;;6.87;4.60;;;;;;;17.45;61.51;98393.42;2132635;83;31007;-70
2021/10/21 10:18:57;;;;;;;5.17;3.62;;;;;;;17.58;60.96;98404.25;2183581;81;32997;-68
2021/10/21 10:22:06;;;;;;;8.63;3.92;;;;;;;17.81;60.60;98417.13;2174885;80;29898;-69
2021/10/21 10:25:22;;;;;;;13.70;2.80;;;;;;;18.07;59.37;98400.20;2172425;81;27508;-65
2021/10/21 10:28:28;;;;;;;9.60;2.90;;;;;;;18.37;59.32;98376.06;2176541;80;28625;-64
2021/10/21 10:31:47;;;;;;;9.05;2.90;;;;;;;18.64;58.03;98391.59;2195151;80;31158;-66
2021/10/21 10:34:54;;;;;;;9.00;3.22;;;;;;;18.82;57.79;98373.69;2199934;80;32971;-64
2021/10/21 10:38:04;;;;;;;6.35;2.75;;;;;;;19.02;55.41;98336.65;2204222;80;29048;-65
2021/10/21 10:41:10;;;;;;;8.10;3.20;;;;;;;19.18;56.03;98381.86;2202766;80;27740;-66
2021/10/21 10:44:39;;;;;;;7.10;2.62;;;;;;;19.35;52.71;98372.25;2203509;80;28678;-65
2021/10/21 10:47:53;;;;;;;13.95;2.47;;;;;;;19.50;53.79;98373.15;2185484;80;32197;-66
2021/10/21 10:50:59;;;;;;;12.83;2.20;;;;;;;19.70;52.92;98376.20;2122750;83;32996;-67
2021/10/21 10:54:05;;;;;;;8.40;2.60;;;;;;;19.88;49.57;98350.61;2178141;80;29021;-67
2021/10/21 10:57:11;;;;;;;14.45;1.80;;;;;;;20.03;50.75;98394.96;2197093;80;27713;-66
2021/10/21 11:00:47;;;;;;;10.58;1.87;;;;;;;20.12;49.50;98398.94;2199650;80;28777;-65
2021/10/21 11:03:49;;;;;;;16.87;2.72;;;;;;;20.19;48.48;98389.86;2199506;80;31027;-64
2021/10/21 11:06:57;;;;;;;14.63;2.12;;;;;;;20.24;48.24;98393.41;2184296;80;32951;-67
2021/10/21 11:10:30;;;;;;;10.20;2.17;;;;;;;20.39;48.02;98410.25;2190521;80;29999;-67
2021/10/21 11:13:39;;;;;;;16.45;1.80;;;;;;;20.49;47.46;98405.36;2205001;80;27696;-65
2021/10/21 11:16:46;;;;;;;20.43;2.47;;;;;;;20.63;47.03;98414.56;2192896;80;28632;-64
2021/10/21 11:19:55;;;;;;;11.53;1.70;;;;;;;20.69;44.83;98414.33;2177473;81;30986;-65
2021/10/21 11:23:08;;;;;;;16.37;2.15;;;;;;;20.72;45.88;98409.88;2154551;82;33026;-64
2021/10/21 11:26:24;;;;;;;21.73;1.87;;;;;;;20.86;44.94;98423.16;2155698;82;29151;-64
2021/10/21 11:29:29;;;;;;;18.77;1.37;;;;;;;21.00;44.54;98429.13;2129621;82;27737;-63
2021/10/21 11:32:34;;;;;;;12.88;1.85;;;;;;;21.04;44.46;98426.85;2154336;82;29341;-63
2021/10/21 11:35:41;;;;;;;16.67;1.47;;;;;;;21.01;43.60;98435.39;2151119;82;31000;-66
2021/10/21 11:39:07;;;;;;;8.53;1.30;;;;;;;20.99;43.46;98442.41;2109240;83;33806;-64
2021/10/21 11:42:13;;;;;;;7.25;1.02;;;;;;;20.95;43.56;98443.81;2138391;83;29851;-64
2021/10/21 11:45:16;;;;;;;10.28;1.55;;;;;;;20.85;42.26;98456.88;2149507;82;27730;-63
2021/10/21 11:48:22;;;;;;;10.32;1.00;;;;;;;20.73;42.76;98465.98;2149039;82;29477;-63
2021/10/21 11:51:31;;;;;;;12.80;1.22;;;;;;;20.65;42.69;98469.64;2180369;81;31854;-62
2021/10/21 11:54:38;;;;;;;8.08;1.77;;;;;;;20.54;41.72;98447.82;2174895;81;33882;-61
2021/10/21 11:57:44;;;;;;;17.37;2.47;;;;;;;20.42;42.48;98458.31;2172817;81;29013;-63
2021/10/21 12:00:54;;;;;;;10.88;1.30;;;;;;;20.32;42.29;98451.77;2174440;81;27639;-64
2021/10/21 12:03:57;;;;;;;11.38;1.20;;;;;;;20.21;42.31;98446.79;2175011;81;28663;-63
2021/10/21 12:07:02;;;;;;;16.10;1.45;;;;;;;20.10;41.95;98444.53;2154692;81;31392;-62
2021/10/21 12:10:08;;;;;;;23.87;1.55;;;;;;;20.07;40.48;98436.73;2175678;81;33634;-63
2021/10/21 12:13:35;;;;;;;18.77;1.55;;;;;;;20.04;40.92;98453.73;2180161;81;29046;-63
2021/10/21 12:16:41;;;;;;;8.63;1.37;;;;;;;19.98;40.15;98439.51;2179892;81;27758;-64
2021/10/21 12:19:52;;;;;;;9.88;1.55;;;;;;;19.92;40.94;98454.34;2158818;81;28634;-64
2021/10/21 12:22:58;;;;;;;14.45;1.45;;;;;;;19.82;40.66;98440.97;2179197;81;31192;-65
2021/10/21 12:26:06;;;;;;;18.25;1.65;;;;;;;19.69;40.07;98435.64;2178867;81;33053;-63
2021/10/21 12:29:12;;;;;;;13.45;1.67;;;;;;;19.53;40.83;98418.10;2179844;81;29822;-65
2021/10/21 12:32:21;;;;;;;16.32;1.82;;;;;;;19.43;40.79;98454.50;2179853;81;27644;-70
2021/10/21 12:35:25;;;;;;;16.05;1.35;;;;;;;19.34;40.69;98450.66;2143861;81;29480;-65
2021/10/21 12:38:29;;;;;;;;;;;;;;;19.23;40.37;98451.38;2140788;82;31063;-66
2021/10/21 12:41:55;;;;;;;23.25;2.08;;;;;;;19.18;40.32;98474.16;2138917;83;33065;-64
2021/10/21 12:45:00;;;;;;;10.80;1.27;;;;;;;19.09;40.45;98478.77;2138863;82;29967;-66
2021/10/21 12:48:20;;;;;;;10.55;1.10;;;;;;;19.06;40.81;98478.25;2139078;83;27696;-66
2021/10/21 12:51:25;;;;;;;12.23;1.25;;;;;;;19.05;40.64;98486.06;2112231;84;28659;-68
2021/10/21 12:54:32;;;;;;;12.82;2.12;;;;;;;18.97;40.85;98491.01;2105147;83;31696;-66
2021/10/21 12:57:44;;;;;;;10.50;1.10;;;;;;;18.92;40.94;98511.86;2136392;83;33735;-68
2021/10/21 13:00:47;;;;;;;8.13;1.02;;;;;;;18.86;41.07;98523.43;2146801;81;29017;-67
2021/10/21 13:03:49;;;;;;;11.70;1.72;;;;;;;18.82;41.13;98528.33;2135602;83;27562;-66
2021/10/21 13:06:53;;;;;;;8.58;1.10;;;;;;;18.76;41.45;98560.24;2137526;82;29640;-69
2021/10/21 13:09:57;;;;;;;4.15;0.53;;;;;;;18.68;40.38;98549.39;2124371;83;31083;-67
2021/10/21 13:13:52;;;;;;;8.95;0.95;;;;;;;18.65;41.37;98561.94;2139308;83;33035;-67
2021/10/21 13:17:01;;;;;;;3.08;0.70;;;;;;;18.55;41.29;98572.12;2107360;81;29203;-67
2021/10/21 13:20:05;;;;;;;5.67;0.82;;;;;;;18.43;41.45;98613.15;2151022;82;28240;-69
2021/10/21 13:23:12;;;;;;;17.77;1.20;;;;;;;18.34;41.96;98633.98;2114550;83;28762;-66
2021/10/21 13:26:24;;;;;;;9.75;1.00;;;;;;;18.27;42.24;98680.91;2151928;82;31064;-67
2021/10/21 13:29:32;;;;;;;14.43;1.62;;;;;;;18.05;43.59;98692.69;2132872;83;30797;-71
2021/10/21 13:32:35;;;;;;;40.08;2.45;;;;;;;17.77;43.77;98715.92;2165849;81;29958;-66
2021/10/21 13:35:41;;;;;;;27.15;2.08;;;;;;;17.62;44.09;98734.63;2153202;81;27769;-70
2021/10/21 13:38:46;;;;;;;24.23;1.37;;;;;;;17.49;44.50;98724.73;2152650;82;28632;-70
2021/10/21 13:41:49;;;;;;;39.58;1.72;;;;;;;17.31;44.88;98763.02;2156648;81;31001;-65
2021/10/21 13:44:52;;;;;;;23.42;2.08;;;;;;;17.10;44.25;98765.23;2152064;82;32372;-66
2021/10/21 13:47:55;;;;;;;25.10;1.27;;;;;;;16.78;44.33;98767.44;2152235;82;29713;-67
2021/10/21 13:50:58;;;;;;;16.25;1.17;;;;;;;16.62;44.78;98780.31;2144918;82;27715;-65
2021/10/21 13:54:02;;;;;;;13.83;0.93;;;;;;;16.42;45.10;98766.05;2140862;82;29822;-66
2021/10/21 13:57:11;;;;;;;21.62;1.40;;;;;;;16.22;45.38;98788.29;2151612;82;31070;-70
2021/10/21 14:00:16;;;;;;;16.23;1.00;;;;;;;16.06;45.87;98808.70;2151141;81;32969;-68
2021/10/21 14:03:20;;;;;;;10.48;0.50;;;;;;;15.93;46.04;98823.88;2177592;81;29001;-67
2021/10/21 14:06:26;;;;;;;19.05;1.00;;;;;;;15.76;46.17;98811.11;2184309;81;27749;-67
2021/10/21 14:09:32;;;;;;;24.10;2.37;;;;;;;15.65;46.33;98837.77;2184117;81;28652;-65
2021/10/21 14:12:39;;;;;;;8.60;1.15;;;;;;;15.43;46.92;98860.05;2184182;81;31122;-65
2021/10/21 14:15:45;;;;;;;22.62;1.82;;;;;;;15.33;47.15;98877.59;2184085;81;32997;-66
2021/10/21 14:18:52;;;;;;;14.40;1.32;;;;;;;15.33;47.15;98877.59;2178822;80;28651;-66
2021/10/21 14:21:57;;;;;;;19.05;2.02;;;;;;;15.23;47.14;98879.93;2184528;81;27695;-66
2021/10/21 14:25:01;;;;;;;20.70;1.07;;;;;;;15.12;47.28;98881.78;2168881;81;28892;-66
2021/10/21 14:28:03;;;;;;;18.48;1.45;;;;;;;15.02;47.29;98882.25;2184051;81;31065;-66
2021/10/21 14:31:05;;;;;;;11.55;1.82;;;;;;;14.92;47.58;98896.22;2184043;81;33413;-66